sensor_id;sensor_type;location;lat;lon;timestamp;P1;durP1;ratioP1;P2;durP2;ratioP2
37885;SDS011;23726;52.520;13.434;2022-12-07T00:03:34;7.60;;;4.95;;
37885;SDS011;23726;52.520;13.434;2022-12-07T00:06:01;6.40;;;4.85;;
37885;SDS011;23726;52.520;13.434;2022-12-07T00:08:28;7.78;;;5.10;;
37885;SDS011;23726;52.520;13.434;2022-12-07T00:10:54;7.55;;;5.10;;
37885;SDS011;23726;52.520;13.434;2022-12-07T00:13:20;7.15;;;5.35;;
37885;SDS011;23726;52.520;13.434;2022-12-07T00:15:46;7.22;;;5.22;;
37885;SDS011;23726;52.520;13.434;2022-12-07T00:18:11;9.13;;;5.40;;
37885;SDS011;23726;52.520;13.434;2022-12-07T00:20:37;7.53;;;4.88;;
37885;SDS011;23726;52.520;13.434;2022-12-07T00:23:02;5.80;;;4.90;;
37885;SDS011;23726;52.520;13.434;2022-12-07T00:25:28;7.22;;;5.32;;
37885;SDS011;23726;52.520;13.434;2022-12-07T00:27:55;7.72;;;4.95;;
37885;SDS011;23726;52.520;13.434;2022-12-07T00:30:21;7.25;;;5.13;;
37885;SDS011;23726;52.520;13.434;2022-12-07T00:32:48;7.10;;;5.28;;
37885;SDS011;23726;52.520;13.434;2022-12-07T00:35:14;6.75;;;5.18;;
37885;SDS011;23726;52.520;13.434;2022-12-07T00:37:39;7.13;;;5.03;;
37885;SDS011;23726;52.520;13.434;2022-12-07T00:40:05;6.32;;;5.03;;
37885;SDS011;23726;52.520;13.434;2022-12-07T00:42:31;8.43;;;5.18;;
37885;SDS011;23726;52.520;13.434;2022-12-07T00:44:57;9.77;;;4.95;;
37885;SDS011;23726;52.520;13.434;2022-12-07T00:47:24;9.55;;;5.07;;
37885;SDS011;23726;52.520;13.434;2022-12-07T00:49:49;8.50;;;5.47;;
37885;SDS011;23726;52.520;13.434;2022-12-07T00:52:15;9.98;;;5.65;;
37885;SDS011;23726;52.520;13.434;2022-12-07T00:54:40;8.45;;;4.80;;
37885;SDS011;23726;52.520;13.434;2022-12-07T00:57:06;9.70;;;5.80;;
37885;SDS011;23726;52.520;13.434;2022-12-07T00:59:32;10.90;;;5.20;;
37885;SDS011;23726;52.520;13.434;2022-12-07T01:01:57;8.65;;;5.50;;
37885;SDS011;23726;52.520;13.434;2022-12-07T01:04:23;8.80;;;5.18;;
37885;SDS011;23726;52.520;13.434;2022-12-07T01:06:49;8.65;;;5.15;;
37885;SDS011;23726;52.520;13.434;2022-12-07T01:09:14;6.63;;;5.38;;
37885;SDS011;23726;52.520;13.434;2022-12-07T01:11:40;7.07;;;5.35;;
37885;SDS011;23726;52.520;13.434;2022-12-07T01:14:06;8.45;;;5.50;;
37885;SDS011;23726;52.520;13.434;2022-12-07T01:16:32;6.18;;;4.85;;
37885;SDS011;23726;52.520;13.434;2022-12-07T01:18:58;7.80;;;5.18;;
37885;SDS011;23726;52.520;13.434;2022-12-07T01:21:27;7.38;;;5.40;;
37885;SDS011;23726;52.520;13.434;2022-12-07T01:23:54;7.22;;;5.30;;
37885;SDS011;23726;52.520;13.434;2022-12-07T01:26:22;9.63;;;5.10;;
37885;SDS011;23726;52.520;13.434;2022-12-07T01:28:49;7.03;;;5.10;;
37885;SDS011;23726;52.520;13.434;2022-12-07T01:31:19;9.02;;;4.82;;
37885;SDS011;23726;52.520;13.434;2022-12-07T01:33:47;7.68;;;4.78;;
37885;SDS011;23726;52.520;13.434;2022-12-07T01:36:27;8.45;;;5.50;;
37885;SDS011;23726;52.520;13.434;2022-12-07T01:38:56;8.32;;;4.72;;
37885;SDS011;23726;52.520;13.434;2022-12-07T01:41:24;8.73;;;4.60;;
37885;SDS011;23726;52.520;13.434;2022-12-07T01:46:49;7.15;;;4.60;;
37885;SDS011;23726;52.520;13.434;2022-12-07T01:49:20;6.63;;;5.13;;
37885;SDS011;23726;52.520;13.434;2022-12-07T01:51:47;7.05;;;5.13;;
37885;SDS011;23726;52.520;13.434;2022-12-07T01:54:14;6.90;;;5.10;;
37885;SDS011;23726;52.520;13.434;2022-12-07T01:56:42;6.82;;;4.72;;
37885;SDS011;23726;52.520;13.434;2022-12-07T01:59:16;7.57;;;4.55;;
37885;SDS011;23726;52.520;13.434;2022-12-07T02:01:43;7.00;;;5.10;;
37885;SDS011;23726;52.520;13.434;2022-12-07T02:04:09;5.90;;;4.57;;
37885;SDS011;23726;52.520;13.434;2022-12-07T02:06:36;6.20;;;4.55;;
37885;SDS011;23726;52.520;13.434;2022-12-07T02:09:03;6.55;;;4.60;;
37885;SDS011;23726;52.520;13.434;2022-12-07T02:11:29;5.55;;;4.60;;
37885;SDS011;23726;52.520;13.434;2022-12-07T02:13:55;8.43;;;4.95;;
37885;SDS011;23726;52.520;13.434;2022-12-07T02:22:09;6.88;;;4.80;;
37885;SDS011;23726;52.520;13.434;2022-12-07T02:27:48;7.47;;;5.10;;
37885;SDS011;23726;52.520;13.434;2022-12-07T02:30:21;5.45;;;4.38;;
37885;SDS011;23726;52.520;13.434;2022-12-07T02:32:55;6.55;;;4.80;;
37885;SDS011;23726;52.520;13.434;2022-12-07T02:38:11;5.38;;;4.55;;
37885;SDS011;23726;52.520;13.434;2022-12-07T02:40:50;6.78;;;4.75;;
37885;SDS011;23726;52.520;13.434;2022-12-07T02:43:22;6.35;;;4.72;;
37885;SDS011;23726;52.520;13.434;2022-12-07T02:45:51;7.20;;;4.82;;
37885;SDS011;23726;52.520;13.434;2022-12-07T02:48:21;6.93;;;4.50;;
37885;SDS011;23726;52.520;13.434;2022-12-07T02:50:50;6.35;;;4.47;;
37885;SDS011;23726;52.520;13.434;2022-12-07T02:58:49;8.60;;;4.75;;
37885;SDS011;23726;52.520;13.434;2022-12-07T03:08:20;5.88;;;4.30;;
37885;SDS011;23726;52.520;13.434;2022-12-07T03:13:33;5.82;;;4.55;;
37885;SDS011;23726;52.520;13.434;2022-12-07T03:16:09;7.30;;;4.90;;
37885;SDS011;23726;52.520;13.434;2022-12-07T03:21:21;5.20;;;4.35;;
37885;SDS011;23726;52.520;13.434;2022-12-07T03:23:54;6.57;;;4.55;;
37885;SDS011;23726;52.520;13.434;2022-12-07T03:26:23;6.53;;;4.55;;
37885;SDS011;23726;52.520;13.434;2022-12-07T03:28:55;5.70;;;4.90;;
37885;SDS011;23726;52.520;13.434;2022-12-07T03:31:26;5.65;;;4.72;;
37885;SDS011;23726;52.520;13.434;2022-12-07T03:36:44;5.55;;;4.75;;
37885;SDS011;23726;52.520;13.434;2022-12-07T03:41:49;5.53;;;4.10;;
37885;SDS011;23726;52.520;13.434;2022-12-07T03:44:16;5.68;;;4.72;;
37885;SDS011;23726;52.520;13.434;2022-12-07T03:57:21;5.82;;;4.68;;
37885;SDS011;23726;52.520;13.434;2022-12-07T03:59:50;5.60;;;4.60;;
37885;SDS011;23726;52.520;13.434;2022-12-07T04:02:18;5.50;;;4.57;;
37885;SDS011;23726;52.520;13.434;2022-12-07T04:04:44;6.45;;;4.18;;
37885;SDS011;23726;52.520;13.434;2022-12-07T04:07:10;5.65;;;4.43;;
37885;SDS011;23726;52.520;13.434;2022-12-07T04:09:36;5.25;;;4.53;;
37885;SDS011;23726;52.520;13.434;2022-12-07T04:12:02;5.63;;;4.30;;
37885;SDS011;23726;52.520;13.434;2022-12-07T04:14:27;5.88;;;4.25;;
37885;SDS011;23726;52.520;13.434;2022-12-07T04:16:54;5.32;;;4.45;;
37885;SDS011;23726;52.520;13.434;2022-12-07T04:19:22;4.60;;;4.13;;
37885;SDS011;23726;52.520;13.434;2022-12-07T04:21:59;5.13;;;4.18;;
37885;SDS011;23726;52.520;13.434;2022-12-07T04:24:26;5.80;;;4.20;;
37885;SDS011;23726;52.520;13.434;2022-12-07T04:26:52;6.32;;;4.70;;
37885;SDS011;23726;52.520;13.434;2022-12-07T04:29:19;5.00;;;3.92;;
37885;SDS011;23726;52.520;13.434;2022-12-07T04:31:45;4.80;;;4.22;;
37885;SDS011;23726;52.520;13.434;2022-12-07T04:34:11;5.50;;;4.60;;
37885;SDS011;23726;52.520;13.434;2022-12-07T04:36:37;6.25;;;4.47;;
37885;SDS011;23726;52.520;13.434;2022-12-07T04:39:03;6.30;;;4.43;;
37885;SDS011;23726;52.520;13.434;2022-12-07T04:41:30;5.55;;;4.72;;
37885;SDS011;23726;52.520;13.434;2022-12-07T04:43:56;5.72;;;4.32;;
37885;SDS011;23726;52.520;13.434;2022-12-07T04:46:26;5.80;;;4.28;;
37885;SDS011;23726;52.520;13.434;2022-12-07T04:48:54;5.13;;;4.20;;
37885;SDS011;23726;52.520;13.434;2022-12-07T04:51:27;5.47;;;4.55;;
37885;SDS011;23726;52.520;13.434;2022-12-07T04:53:54;6.10;;;4.55;;
37885;SDS011;23726;52.520;13.434;2022-12-07T04:56:20;5.95;;;4.25;;
37885;SDS011;23726;52.520;13.434;2022-12-07T04:58:48;6.03;;;4.20;;
37885;SDS011;23726;52.520;13.434;2022-12-07T05:01:15;5.57;;;4.32;;
37885;SDS011;23726;52.520;13.434;2022-12-07T05:03:41;4.75;;;4.15;;
37885;SDS011;23726;52.520;13.434;2022-12-07T05:06:08;5.70;;;4.55;;
37885;SDS011;23726;52.520;13.434;2022-12-07T05:08:34;5.25;;;4.25;;
37885;SDS011;23726;52.520;13.434;2022-12-07T05:11:01;5.32;;;4.35;;
37885;SDS011;23726;52.520;13.434;2022-12-07T05:13:26;4.75;;;4.10;;
37885;SDS011;23726;52.520;13.434;2022-12-07T05:15:52;4.45;;;4.05;;
37885;SDS011;23726;52.520;13.434;2022-12-07T05:18:18;4.60;;;4.20;;
37885;SDS011;23726;52.520;13.434;2022-12-07T05:20:44;4.38;;;3.90;;
37885;SDS011;23726;52.520;13.434;2022-12-07T05:23:11;5.78;;;4.60;;
37885;SDS011;23726;52.520;13.434;2022-12-07T05:25:36;4.68;;;4.18;;
37885;SDS011;23726;52.520;13.434;2022-12-07T05:28:03;7.38;;;4.25;;
37885;SDS011;23726;52.520;13.434;2022-12-07T05:30:29;4.82;;;3.97;;
37885;SDS011;23726;52.520;13.434;2022-12-07T05:32:57;5.22;;;4.03;;
37885;SDS011;23726;52.520;13.434;2022-12-07T05:35:23;5.20;;;4.05;;
37885;SDS011;23726;52.520;13.434;2022-12-07T05:37:48;4.70;;;4.10;;
37885;SDS011;23726;52.520;13.434;2022-12-07T05:40:14;5.32;;;4.05;;
37885;SDS011;23726;52.520;13.434;2022-12-07T05:42:41;6.47;;;4.35;;
37885;SDS011;23726;52.520;13.434;2022-12-07T05:45:07;5.13;;;4.18;;
37885;SDS011;23726;52.520;13.434;2022-12-07T05:47:34;5.47;;;4.10;;
37885;SDS011;23726;52.520;13.434;2022-12-07T05:50:00;5.10;;;4.25;;
37885;SDS011;23726;52.520;13.434;2022-12-07T05:52:26;5.28;;;4.30;;
37885;SDS011;23726;52.520;13.434;2022-12-07T05:54:51;5.38;;;4.47;;
37885;SDS011;23726;52.520;13.434;2022-12-07T05:57:17;5.18;;;4.13;;
37885;SDS011;23726;52.520;13.434;2022-12-07T05:59:43;4.72;;;4.15;;
37885;SDS011;23726;52.520;13.434;2022-12-07T06:02:09;5.18;;;4.30;;
37885;SDS011;23726;52.520;13.434;2022-12-07T06:04:37;5.70;;;4.07;;
37885;SDS011;23726;52.520;13.434;2022-12-07T06:07:05;5.28;;;4.43;;
37885;SDS011;23726;52.520;13.434;2022-12-07T06:09:31;4.78;;;4.30;;
37885;SDS011;23726;52.520;13.434;2022-12-07T06:11:59;4.45;;;3.90;;
37885;SDS011;23726;52.520;13.434;2022-12-07T06:14:43;5.10;;;4.15;;
37885;SDS011;23726;52.520;13.434;2022-12-07T06:17:10;4.32;;;3.90;;
37885;SDS011;23726;52.520;13.434;2022-12-07T06:19:37;4.80;;;3.97;;
37885;SDS011;23726;52.520;13.434;2022-12-07T06:22:03;4.93;;;4.38;;
37885;SDS011;23726;52.520;13.434;2022-12-07T06:24:29;4.93;;;4.20;;
37885;SDS011;23726;52.520;13.434;2022-12-07T06:26:55;5.70;;;4.47;;
37885;SDS011;23726;52.520;13.434;2022-12-07T06:29:21;4.82;;;4.28;;
37885;SDS011;23726;52.520;13.434;2022-12-07T06:31:47;5.55;;;4.43;;
37885;SDS011;23726;52.520;13.434;2022-12-07T06:34:15;4.78;;;4.28;;
37885;SDS011;23726;52.520;13.434;2022-12-07T06:36:42;5.55;;;4.10;;
37885;SDS011;23726;52.520;13.434;2022-12-07T06:39:09;5.00;;;4.18;;
37885;SDS011;23726;52.520;13.434;2022-12-07T06:41:35;5.35;;;4.43;;
37885;SDS011;23726;52.520;13.434;2022-12-07T06:44:02;4.78;;;4.10;;
37885;SDS011;23726;52.520;13.434;2022-12-07T06:46:28;4.97;;;4.10;;
37885;SDS011;23726;52.520;13.434;2022-12-07T06:48:54;4.75;;;3.97;;
37885;SDS011;23726;52.520;13.434;2022-12-07T06:51:19;7.60;;;4.25;;
37885;SDS011;23726;52.520;13.434;2022-12-07T06:53:45;4.50;;;4.00;;
37885;SDS011;23726;52.520;13.434;2022-12-07T06:56:10;4.95;;;4.13;;
37885;SDS011;23726;52.520;13.434;2022-12-07T06:58:39;5.13;;;4.25;;
37885;SDS011;23726;52.520;13.434;2022-12-07T07:01:11;5.93;;;4.55;;
37885;SDS011;23726;52.520;13.434;2022-12-07T07:03:39;4.78;;;4.18;;
37885;SDS011;23726;52.520;13.434;2022-12-07T07:06:05;4.50;;;3.85;;
37885;SDS011;23726;52.520;13.434;2022-12-07T07:08:32;4.75;;;3.90;;
37885;SDS011;23726;52.520;13.434;2022-12-07T07:10:58;4.45;;;4.03;;
37885;SDS011;23726;52.520;13.434;2022-12-07T07:13:24;5.32;;;4.07;;
37885;SDS011;23726;52.520;13.434;2022-12-07T07:15:49;7.10;;;4.40;;
37885;SDS011;23726;52.520;13.434;2022-12-07T07:18:15;6.18;;;4.18;;
37885;SDS011;23726;52.520;13.434;2022-12-07T07:20:41;4.47;;;3.72;;
37885;SDS011;23726;52.520;13.434;2022-12-07T07:23:06;4.60;;;4.13;;
37885;SDS011;23726;52.520;13.434;2022-12-07T07:25:32;4.32;;;3.92;;
37885;SDS011;23726;52.520;13.434;2022-12-07T07:27:58;5.63;;;4.00;;
37885;SDS011;23726;52.520;13.434;2022-12-07T07:30:24;4.82;;;4.00;;
37885;SDS011;23726;52.520;13.434;2022-12-07T07:32:50;6.68;;;4.25;;
37885;SDS011;23726;52.520;13.434;2022-12-07T07:35:16;4.70;;;4.20;;
37885;SDS011;23726;52.520;13.434;2022-12-07T07:37:41;5.95;;;4.53;;
37885;SDS011;23726;52.520;13.434;2022-12-07T07:40:08;4.90;;;4.00;;
37885;SDS011;23726;52.520;13.434;2022-12-07T07:42:34;4.63;;;4.00;;
37885;SDS011;23726;52.520;13.434;2022-12-07T07:45:00;4.40;;;4.00;;
37885;SDS011;23726;52.520;13.434;2022-12-07T07:47:26;4.30;;;3.90;;
37885;SDS011;23726;52.520;13.434;2022-12-07T07:49:51;5.25;;;4.07;;
37885;SDS011;23726;52.520;13.434;2022-12-07T07:52:17;5.90;;;4.43;;
37885;SDS011;23726;52.520;13.434;2022-12-07T07:54:42;4.50;;;3.88;;
37885;SDS011;23726;52.520;13.434;2022-12-07T07:57:08;4.65;;;4.00;;
37885;SDS011;23726;52.520;13.434;2022-12-07T07:59:33;4.60;;;4.00;;
37885;SDS011;23726;52.520;13.434;2022-12-07T08:01:59;5.38;;;3.80;;
37885;SDS011;23726;52.520;13.434;2022-12-07T08:04:25;5.13;;;4.38;;
37885;SDS011;23726;52.520;13.434;2022-12-07T08:06:50;4.75;;;4.20;;
37885;SDS011;23726;52.520;13.434;2022-12-07T08:09:16;5.85;;;4.50;;
37885;SDS011;23726;52.520;13.434;2022-12-07T08:11:42;4.45;;;3.95;;
37885;SDS011;23726;52.520;13.434;2022-12-07T08:14:07;4.55;;;4.05;;
37885;SDS011;23726;52.520;13.434;2022-12-07T08:16:34;4.93;;;4.30;;
37885;SDS011;23726;52.520;13.434;2022-12-07T08:19:00;4.15;;;3.65;;
37885;SDS011;23726;52.520;13.434;2022-12-07T08:21:25;5.03;;;4.15;;
37885;SDS011;23726;52.520;13.434;2022-12-07T08:23:52;4.30;;;3.90;;
37885;SDS011;23726;52.520;13.434;2022-12-07T08:26:18;5.10;;;4.15;;
37885;SDS011;23726;52.520;13.434;2022-12-07T08:28:43;4.68;;;4.22;;
37885;SDS011;23726;52.520;13.434;2022-12-07T08:31:11;4.18;;;3.78;;
37885;SDS011;23726;52.520;13.434;2022-12-07T08:33:39;4.45;;;3.90;;
37885;SDS011;23726;52.520;13.434;2022-12-07T08:36:06;5.53;;;3.80;;
37885;SDS011;23726;52.520;13.434;2022-12-07T08:38:34;5.53;;;4.57;;
37885;SDS011;23726;52.520;13.434;2022-12-07T08:41:00;4.70;;;4.18;;
37885;SDS011;23726;52.520;13.434;2022-12-07T08:43:26;4.43;;;3.85;;
37885;SDS011;23726;52.520;13.434;2022-12-07T08:45:54;5.35;;;4.30;;
37885;SDS011;23726;52.520;13.434;2022-12-07T08:48:30;4.20;;;3.80;;
37885;SDS011;23726;52.520;13.434;2022-12-07T08:50:57;8.15;;;4.20;;
37885;SDS011;23726;52.520;13.434;2022-12-07T08:53:23;7.95;;;4.40;;
37885;SDS011;23726;52.520;13.434;2022-12-07T08:55:49;4.78;;;3.95;;
37885;SDS011;23726;52.520;13.434;2022-12-07T08:58:15;7.78;;;4.30;;
37885;SDS011;23726;52.520;13.434;2022-12-07T09:00:41;7.65;;;4.15;;
37885;SDS011;23726;52.520;13.434;2022-12-07T09:03:07;10.70;;;4.47;;
37885;SDS011;23726;52.520;13.434;2022-12-07T09:05:32;6.18;;;4.10;;
37885;SDS011;23726;52.520;13.434;2022-12-07T09:07:59;5.88;;;4.22;;
37885;SDS011;23726;52.520;13.434;2022-12-07T09:10:26;4.70;;;4.15;;
37885;SDS011;23726;52.520;13.434;2022-12-07T09:12:52;5.25;;;4.13;;
37885;SDS011;23726;52.520;13.434;2022-12-07T09:15:18;4.50;;;3.83;;
37885;SDS011;23726;52.520;13.434;2022-12-07T09:17:44;5.30;;;4.03;;
37885;SDS011;23726;52.520;13.434;2022-12-07T09:20:09;4.57;;;3.88;;
37885;SDS011;23726;52.520;13.434;2022-12-07T09:22:35;5.32;;;4.35;;
37885;SDS011;23726;52.520;13.434;2022-12-07T09:25:01;4.80;;;4.30;;
37885;SDS011;23726;52.520;13.434;2022-12-07T09:27:27;5.82;;;4.55;;
37885;SDS011;23726;52.520;13.434;2022-12-07T09:29:53;4.80;;;4.10;;
37885;SDS011;23726;52.520;13.434;2022-12-07T09:32:19;4.57;;;3.95;;
37885;SDS011;23726;52.520;13.434;2022-12-07T09:34:44;3.95;;;3.55;;
37885;SDS011;23726;52.520;13.434;2022-12-07T09:37:10;4.63;;;3.88;;
37885;SDS011;23726;52.520;13.434;2022-12-07T09:39:39;5.05;;;4.25;;
37885;SDS011;23726;52.520;13.434;2022-12-07T09:42:05;5.22;;;4.20;;
37885;SDS011;23726;52.520;13.434;2022-12-07T09:44:32;5.07;;;4.00;;
37885;SDS011;23726;52.520;13.434;2022-12-07T09:46:58;6.65;;;4.20;;
37885;SDS011;23726;52.520;13.434;2022-12-07T09:49:25;5.10;;;3.92;;
37885;SDS011;23726;52.520;13.434;2022-12-07T09:54:28;4.43;;;4.03;;
37885;SDS011;23726;52.520;13.434;2022-12-07T09:56:55;5.55;;;4.00;;
37885;SDS011;23726;52.520;13.434;2022-12-07T09:59:21;5.35;;;4.30;;
37885;SDS011;23726;52.520;13.434;2022-12-07T10:01:48;5.00;;;4.28;;
37885;SDS011;23726;52.520;13.434;2022-12-07T10:04:19;4.22;;;3.83;;
37885;SDS011;23726;52.520;13.434;2022-12-07T10:06:47;4.32;;;3.83;;
37885;SDS011;23726;52.520;13.434;2022-12-07T10:09:13;4.65;;;4.00;;
37885;SDS011;23726;52.520;13.434;2022-12-07T10:14:35;5.93;;;4.40;;
37885;SDS011;23726;52.520;13.434;2022-12-07T10:17:02;4.68;;;4.03;;
37885;SDS011;23726;52.520;13.434;2022-12-07T10:19:48;4.82;;;3.92;;
37885;SDS011;23726;52.520;13.434;2022-12-07T10:22:15;3.95;;;3.58;;
37885;SDS011;23726;52.520;13.434;2022-12-07T10:24:42;6.40;;;4.03;;
37885;SDS011;23726;52.520;13.434;2022-12-07T10:27:30;5.57;;;3.90;;
37885;SDS011;23726;52.520;13.434;2022-12-07T10:29:57;6.30;;;4.10;;
37885;SDS011;23726;52.520;13.434;2022-12-07T10:35:18;5.82;;;4.57;;
37885;SDS011;23726;52.520;13.434;2022-12-07T10:37:44;8.65;;;4.25;;
37885;SDS011;23726;52.520;13.434;2022-12-07T10:40:24;12.70;;;4.70;;
37885;SDS011;23726;52.520;13.434;2022-12-07T10:43:03;69.40;;;17.45;;
37885;SDS011;23726;52.520;13.434;2022-12-07T10:48:19;58.22;;;17.00;;
37885;SDS011;23726;52.520;13.434;2022-12-07T10:53:51;49.83;;;14.40;;
37885;SDS011;23726;52.520;13.434;2022-12-07T10:56:39;46.10;;;13.50;;
37885;SDS011;23726;52.520;13.434;2022-12-07T11:07:21;259.77;;;49.65;;
37885;SDS011;23726;52.520;13.434;2022-12-07T11:23:40;237.38;;;51.25;;
37885;SDS011;23726;52.520;13.434;2022-12-07T11:31:22;216.63;;;48.53;;
37885;SDS011;23726;52.520;13.434;2022-12-07T11:36:46;219.80;;;50.17;;
37885;SDS011;23726;52.520;13.434;2022-12-07T11:39:28;212.02;;;49.05;;
37885;SDS011;23726;52.520;13.434;2022-12-07T11:42:06;199.30;;;47.83;;
37885;SDS011;23726;52.520;13.434;2022-12-07T11:47:26;181.30;;;44.67;;
37885;SDS011;23726;52.520;13.434;2022-12-07T11:52:58;199.27;;;46.92;;
37885;SDS011;23726;52.520;13.434;2022-12-07T11:55:41;178.93;;;45.35;;
37885;SDS011;23726;52.520;13.434;2022-12-07T12:06:40;185.23;;;42.95;;
37885;SDS011;23726;52.520;13.434;2022-12-07T12:09:12;174.13;;;43.10;;
37885;SDS011;23726;52.520;13.434;2022-12-07T12:20:14;160.90;;;41.88;;
37885;SDS011;23726;52.520;13.434;2022-12-07T12:22:46;156.23;;;40.63;;
37885;SDS011;23726;52.520;13.434;2022-12-07T12:25:51;149.85;;;39.75;;
37885;SDS011;23726;52.520;13.434;2022-12-07T12:28:27;145.70;;;38.72;;
37885;SDS011;23726;52.520;13.434;2022-12-07T12:33:34;145.15;;;38.45;;
37885;SDS011;23726;52.520;13.434;2022-12-07T12:44:38;137.07;;;36.67;;
37885;SDS011;23726;52.520;13.434;2022-12-07T12:46:57;130.13;;;36.47;;
37885;SDS011;23726;52.520;13.434;2022-12-07T12:54:24;139.13;;;37.30;;
37885;SDS011;23726;52.520;13.434;2022-12-07T12:59:30;131.52;;;36.25;;
37885;SDS011;23726;52.520;13.434;2022-12-07T13:04:50;119.85;;;34.97;;
37885;SDS011;23726;52.520;13.434;2022-12-07T13:15:54;125.55;;;35.97;;
37885;SDS011;23726;52.520;13.434;2022-12-07T13:23:31;103.47;;;32.90;;
37885;SDS011;23726;52.520;13.434;2022-12-07T13:29:36;110.93;;;33.25;;
37885;SDS011;23726;52.520;13.434;2022-12-07T13:31:45;108.88;;;32.13;;
37885;SDS011;23726;52.520;13.434;2022-12-07T13:37:02;102.82;;;31.80;;
37885;SDS011;23726;52.520;13.434;2022-12-07T13:39:35;99.57;;;31.10;;
37885;SDS011;23726;52.520;13.434;2022-12-07T13:42:34;106.13;;;33.13;;
37885;SDS011;23726;52.520;13.434;2022-12-07T13:45:01;101.93;;;31.70;;
37885;SDS011;23726;52.520;13.434;2022-12-07T13:47:52;94.65;;;31.00;;
37885;SDS011;23726;52.520;13.434;2022-12-07T13:50:22;101.60;;;30.60;;
37885;SDS011;23726;52.520;13.434;2022-12-07T13:52:48;97.45;;;30.83;;
37885;SDS011;23726;52.520;13.434;2022-12-07T13:55:15;89.70;;;30.80;;
37885;SDS011;23726;52.520;13.434;2022-12-07T13:57:43;91.93;;;29.60;;
37885;SDS011;23726;52.520;13.434;2022-12-07T14:00:19;95.70;;;30.85;;
37885;SDS011;23726;52.520;13.434;2022-12-07T14:02:57;96.55;;;30.17;;
37885;SDS011;23726;52.520;13.434;2022-12-07T14:05:34;86.32;;;29.65;;
37885;SDS011;23726;52.520;13.434;2022-12-07T14:13:36;96.82;;;29.02;;
37885;SDS011;23726;52.520;13.434;2022-12-07T14:18:50;84.30;;;27.90;;
37885;SDS011;23726;52.520;13.434;2022-12-07T14:21:16;87.93;;;28.40;;
37885;SDS011;23726;52.520;13.434;2022-12-07T14:23:45;86.93;;;29.15;;
37885;SDS011;23726;52.520;13.434;2022-12-07T14:26:26;86.15;;;28.23;;
37885;SDS011;23726;52.520;13.434;2022-12-07T14:28:52;92.38;;;28.50;;
37885;SDS011;23726;52.520;13.434;2022-12-07T14:31:18;76.72;;;27.48;;
37885;SDS011;23726;52.520;13.434;2022-12-07T14:33:48;86.75;;;28.80;;
37885;SDS011;23726;52.520;13.434;2022-12-07T14:36:15;77.25;;;26.80;;
37885;SDS011;23726;52.520;13.434;2022-12-07T14:38:42;79.82;;;27.42;;
37885;SDS011;23726;52.520;13.434;2022-12-07T14:41:12;83.07;;;27.60;;
37885;SDS011;23726;52.520;13.434;2022-12-07T14:43:59;82.95;;;27.90;;
37885;SDS011;23726;52.520;13.434;2022-12-07T14:46:25;70.97;;;26.15;;
37885;SDS011;23726;52.520;13.434;2022-12-07T14:48:51;77.70;;;27.48;;
37885;SDS011;23726;52.520;13.434;2022-12-07T14:51:16;74.55;;;26.60;;
37885;SDS011;23726;52.520;13.434;2022-12-07T14:53:48;73.47;;;26.08;;
37885;SDS011;23726;52.520;13.434;2022-12-07T14:56:16;79.13;;;26.60;;
37885;SDS011;23726;52.520;13.434;2022-12-07T14:58:42;77.43;;;25.67;;
37885;SDS011;23726;52.520;13.434;2022-12-07T15:01:08;70.18;;;25.77;;
37885;SDS011;23726;52.520;13.434;2022-12-07T15:03:33;75.28;;;24.67;;
37885;SDS011;23726;52.520;13.434;2022-12-07T15:05:59;79.13;;;26.20;;
37885;SDS011;23726;52.520;13.434;2022-12-07T15:08:25;80.90;;;26.40;;
37885;SDS011;23726;52.520;13.434;2022-12-07T15:10:52;71.93;;;25.02;;
37885;SDS011;23726;52.520;13.434;2022-12-07T15:13:18;73.85;;;25.58;;
37885;SDS011;23726;52.520;13.434;2022-12-07T15:16:02;74.15;;;25.05;;
37885;SDS011;23726;52.520;13.434;2022-12-07T15:18:28;73.78;;;25.88;;
37885;SDS011;23726;52.520;13.434;2022-12-07T15:20:54;74.18;;;26.38;;
37885;SDS011;23726;52.520;13.434;2022-12-07T15:23:19;71.78;;;25.13;;
37885;SDS011;23726;52.520;13.434;2022-12-07T15:25:47;69.15;;;24.38;;
37885;SDS011;23726;52.520;13.434;2022-12-07T15:28:14;71.38;;;25.73;;
37885;SDS011;23726;52.520;13.434;2022-12-07T15:30:40;66.05;;;24.10;;
37885;SDS011;23726;52.520;13.434;2022-12-07T15:33:09;67.53;;;23.70;;
37885;SDS011;23726;52.520;13.434;2022-12-07T15:35:41;65.85;;;23.83;;
37885;SDS011;23726;52.520;13.434;2022-12-07T15:38:08;70.13;;;24.88;;
37885;SDS011;23726;52.520;13.434;2022-12-07T15:40:34;66.15;;;23.13;;
37885;SDS011;23726;52.520;13.434;2022-12-07T15:43:00;60.30;;;24.33;;
37885;SDS011;23726;52.520;13.434;2022-12-07T15:45:26;61.85;;;22.42;;
37885;SDS011;23726;52.520;13.434;2022-12-07T15:47:51;56.55;;;23.60;;
37885;SDS011;23726;52.520;13.434;2022-12-07T15:50:21;59.92;;;23.17;;
37885;SDS011;23726;52.520;13.434;2022-12-07T15:52:47;63.88;;;22.95;;
37885;SDS011;23726;52.520;13.434;2022-12-07T15:55:13;63.92;;;23.33;;
37885;SDS011;23726;52.520;13.434;2022-12-07T15:57:40;55.58;;;23.13;;
37885;SDS011;23726;52.520;13.434;2022-12-07T16:00:06;62.10;;;23.52;;
37885;SDS011;23726;52.520;13.434;2022-12-07T16:02:33;58.08;;;23.05;;
37885;SDS011;23726;52.520;13.434;2022-12-07T16:05:01;62.70;;;24.08;;
37885;SDS011;23726;52.520;13.434;2022-12-07T16:07:26;60.30;;;21.88;;
37885;SDS011;23726;52.520;13.434;2022-12-07T16:09:53;58.70;;;21.95;;
37885;SDS011;23726;52.520;13.434;2022-12-07T16:12:19;57.70;;;22.33;;
37885;SDS011;23726;52.520;13.434;2022-12-07T16:14:44;54.67;;;22.08;;
37885;SDS011;23726;52.520;13.434;2022-12-07T16:17:10;58.97;;;21.33;;
37885;SDS011;23726;52.520;13.434;2022-12-07T16:19:37;58.17;;;22.58;;
37885;SDS011;23726;52.520;13.434;2022-12-07T16:22:03;53.67;;;21.60;;
37885;SDS011;23726;52.520;13.434;2022-12-07T16:24:29;55.25;;;21.52;;
37885;SDS011;23726;52.520;13.434;2022-12-07T16:26:55;60.58;;;21.90;;
37885;SDS011;23726;52.520;13.434;2022-12-07T16:29:21;56.90;;;21.77;;
37885;SDS011;23726;52.520;13.434;2022-12-07T16:31:49;51.70;;;21.17;;
37885;SDS011;23726;52.520;13.434;2022-12-07T16:34:15;55.20;;;21.35;;
37885;SDS011;23726;52.520;13.434;2022-12-07T16:36:41;53.45;;;21.70;;
37885;SDS011;23726;52.520;13.434;2022-12-07T16:39:07;55.60;;;21.63;;
37885;SDS011;23726;52.520;13.434;2022-12-07T16:41:33;55.65;;;20.75;;
37885;SDS011;23726;52.520;13.434;2022-12-07T16:44:03;54.70;;;21.95;;
37885;SDS011;23726;52.520;13.434;2022-12-07T16:46:33;51.72;;;20.90;;
37885;SDS011;23726;52.520;13.434;2022-12-07T16:49:00;53.28;;;21.23;;
37885;SDS011;23726;52.520;13.434;2022-12-07T16:51:27;56.78;;;22.15;;
37885;SDS011;23726;52.520;13.434;2022-12-07T16:53:53;55.70;;;20.67;;
37885;SDS011;23726;52.520;13.434;2022-12-07T16:56:18;53.55;;;20.95;;
37885;SDS011;23726;52.520;13.434;2022-12-07T16:58:44;51.55;;;20.17;;
37885;SDS011;23726;52.520;13.434;2022-12-07T17:01:12;50.03;;;20.60;;
37885;SDS011;23726;52.520;13.434;2022-12-07T17:03:43;49.13;;;20.77;;
37885;SDS011;23726;52.520;13.434;2022-12-07T17:06:11;56.47;;;21.15;;
37885;SDS011;23726;52.520;13.434;2022-12-07T17:08:42;49.63;;;20.15;;
37885;SDS011;23726;52.520;13.434;2022-12-07T17:11:09;48.40;;;18.92;;
37885;SDS011;23726;52.520;13.434;2022-12-07T17:13:39;49.30;;;20.67;;
37885;SDS011;23726;52.520;13.434;2022-12-07T17:16:23;56.75;;;21.13;;
37885;SDS011;23726;52.520;13.434;2022-12-07T17:18:50;47.30;;;19.50;;